Time;durP1;ratioP1;P1;durP2;ratioP2;P2;SDS_P1;SDS_P2;PMS_P1;PMS_P2;Temp;Humidity;BMP_temperature;BMP_pressure;BME280_temperature;BME280_humidity;BME280_pressure;Samples;Min_cycle;Max_cycle;Signal;HPM_P1;HPM_P2
2022/01/10 00:00:49;;;;;;;18.23;8.77;;;2.50;99.90;;;;;;5057066;28;20211;-53
2022/01/10 00:03:16;;;;;;;17.03;8.13;;;2.40;99.90;;;;;;5058955;28;20261;-54
2022/01/10 00:05:43;;;;;;;16.57;9.60;;;2.40;99.90;;;;;;5056739;28;20958;-54
2022/01/10 00:08:12;;;;;;;15.70;8.97;;;2.30;99.90;;;;;;5057312;28;20577;-58
2022/01/10 00:10:39;;;;;;;17.67;8.90;;;2.30;99.90;;;;;;5057378;28;20230;-56
2022/01/10 00:13:06;;;;;;;23.37;9.83;;;2.20;99.90;;;;;;5055527;28;20208;-53
2022/01/10 00:15:33;;;;;;;18.10;9.40;;;2.20;99.90;;;;;;5059128;28;20653;-57
2022/01/10 00:18:00;;;;;;;12.40;8.70;;;2.20;99.90;;;;;;5055071;28;20211;-56
2022/01/10 00:20:27;;;;;;;19.33;9.63;;;2.30;99.90;;;;;;5056044;28;20208;-54
2022/01/10 00:22:54;;;;;;;14.67;9.33;;;2.20;99.90;;;;;;5056596;28;20681;-56
2022/01/10 00:25:22;;;;;;;13.80;9.60;;;2.20;99.90;;;;;;5055824;28;20723;-54
2022/01/10 00:27:52;;;;;;;13.60;9.20;;;2.20;99.90;;;;;;5056311;28;21151;-56
2022/01/10 00:30:21;;;;;;;16.37;9.33;;;2.20;99.90;;;;;;5058039;28;20237;-54
2022/01/10 00:32:48;;;;;;;20.33;10.30;;;2.20;99.90;;;;;;5057259;28;20566;-54
2022/01/10 00:35:17;;;;;;;12.93;8.73;;;2.30;99.90;;;;;;5057513;28;20203;-52
2022/01/10 00:37:44;;;;;;;13.57;8.67;;;2.20;99.90;;;;;;5058194;28;20280;-55
2022/01/10 00:40:13;;;;;;;15.17;9.00;;;2.20;99.90;;;;;;5057543;28;20237;-53
2022/01/10 00:42:40;;;;;;;19.93;9.80;;;2.20;99.90;;;;;;5057925;28;20223;-56
2022/01/10 00:45:17;;;;;;;21.27;9.67;;;2.30;99.90;;;;;;5057581;28;20207;-53
2022/01/10 00:47:48;;;;;;;22.13;10.03;;;2.30;99.90;;;;;;5058649;28;20195;-52
2022/01/10 00:50:16;;;;;;;20.27;9.97;;;2.30;99.90;;;;;;5059100;28;20199;-54
2022/01/10 01:12:09;;;;;;;23.63;9.77;;;2.30;99.90;;;;;;5064114;28;20191;-56
2022/01/10 01:14:52;;;;;;;16.73;9.37;;;2.50;99.90;;;;;;5062010;28;20215;-54
2022/01/10 01:25:13;;;;;;;12.37;8.83;;;2.20;99.90;;;;;;5059073;28;20294;-57
2022/01/10 01:27:42;;;;;;;14.90;9.80;;;2.10;99.90;;;;;;5059745;28;20203;-52
2022/01/10 01:30:10;;;;;;;16.37;10.03;;;2.00;99.90;;;;;;5062184;28;20889;-52
2022/01/10 01:32:37;;;;;;;16.73;10.73;;;2.00;99.90;;;;;;5061769;28;20276;-55
2022/01/10 01:35:07;;;;;;;18.13;10.57;;;2.00;99.90;;;;;;5060324;28;20890;-53
2022/01/10 01:37:37;;;;;;;18.73;9.97;;;2.00;99.90;;;;;;5059431;28;20278;-53
2022/01/10 01:40:07;;;;;;;16.53;9.87;;;2.00;99.90;;;;;;5061471;28;20774;-55
2022/01/10 01:42:37;;;;;;;21.30;10.47;;;1.90;99.90;;;;;;5061294;28;20314;-58
2022/01/10 01:45:08;;;;;;;16.40;10.03;;;1.90;99.90;;;;;;5061679;28;20199;-54
2022/01/10 01:47:35;;;;;;;18.67;10.77;;;1.90;99.90;;;;;;5061208;28;20282;-54
2022/01/10 01:50:05;;;;;;;17.53;11.50;;;1.90;99.90;;;;;;5056451;28;20279;-53
2022/01/10 01:52:32;;;;;;;17.47;10.90;;;1.90;99.90;;;;;;5060604;28;20281;-54
2022/01/10 01:54:59;;;;;;;18.20;11.50;;;2.00;99.90;;;;;;5059715;28;20238;-53
2022/01/10 01:57:27;;;;;;;17.20;10.37;;;2.10;99.90;;;;;;5061830;28;20664;-60
2022/01/10 01:59:54;;;;;;;21.37;10.93;;;2.30;99.90;;;;;;5042422;28;20253;-52
2022/01/10 02:02:21;;;;;;;19.60;11.17;;;2.40;99.90;;;;;;5060491;28;20616;-53
2022/01/10 02:04:48;;;;;;;17.83;10.30;;;2.40;99.90;;;;;;5055139;28;20543;-53
2022/01/10 02:07:17;;;;;;;20.00;11.83;;;2.30;99.90;;;;;;5061387;28;20636;-54
2022/01/10 02:09:45;;;;;;;25.20;11.33;;;2.10;99.90;;;;;;5060433;28;20215;-52
2022/01/10 02:12:12;;;;;;;19.10;11.70;;;2.10;99.90;;;;;;5061287;28;20550;-52
2022/01/10 02:14:44;;;;;;;18.40;11.13;;;2.10;99.90;;;;;;5060487;28;21201;-53
2022/01/10 02:17:13;;;;;;;18.00;10.83;;;2.10;99.90;;;;;;5054864;28;20206;-52
2022/01/10 02:19:40;;;;;;;21.10;12.47;;;2.10;99.90;;;;;;5063388;28;20237;-52
2022/01/10 02:22:07;;;;;;;24.50;12.00;;;2.20;99.90;;;;;;5058995;28;20623;-54
2022/01/10 02:24:34;;;;;;;20.20;11.23;;;2.20;99.90;;;;;;5061579;28;20199;-53
2022/01/10 02:27:01;;;;;;;20.43;11.57;;;2.40;99.90;;;;;;5057893;28;20199;-51
2022/01/10 02:29:28;;;;;;;17.57;11.23;;;2.40;99.90;;;;;;5062682;28;20211;-55
2022/01/10 02:31:55;;;;;;;23.80;11.20;;;2.30;99.90;;;;;;5061886;28;20817;-56
2022/01/10 02:34:25;;;;;;;20.70;11.20;;;2.20;99.90;;;;;;5058885;28;20195;-52
2022/01/10 02:36:56;;;;;;;22.80;11.77;;;2.10;99.90;;;;;;5055837;28;20562;-53
2022/01/10 02:39:24;;;;;;;24.10;12.03;;;2.30;99.90;;;;;;5060598;28;20217;-54
2022/01/10 02:41:51;;;;;;;18.50;10.93;;;2.20;99.90;;;;;;5059407;28;20219;-55
2022/01/10 02:44:18;;;;;;;22.20;11.40;;;2.10;99.90;;;;;;5061178;28;20288;-55
2022/01/10 02:46:46;;;;;;;19.67;11.87;;;2.00;99.90;;;;;;5059762;28;20278;-54
2022/01/10 02:49:24;;;;;;;20.83;12.90;;;2.00;99.90;;;;;;5058956;28;20934;-55
2022/01/10 02:51:53;;;;;;;21.27;11.33;;;2.00;99.90;;;;;;5060205;28;20670;-55
2022/01/10 02:54:23;;;;;;;22.83;11.57;;;1.90;99.90;;;;;;5058220;28;20711;-54
2022/01/10 02:56:55;;;;;;;16.17;11.80;;;1.80;99.90;;;;;;5057739;28;20257;-56
2022/01/10 02:59:23;;;;;;;20.20;11.97;;;1.80;99.90;;;;;;5058338;28;20200;-55
2022/01/10 03:01:51;;;;;;;23.30;12.10;;;1.80;99.90;;;;;;5058355;28;20273;-54
2022/01/10 03:04:19;;;;;;;19.27;12.37;;;2.00;99.90;;;;;;5059286;28;20897;-54
2022/01/10 03:06:48;;;;;;;23.20;11.30;;;2.00;99.90;;;;;;5057379;28;20552;-54
2022/01/10 03:09:15;;;;;;;23.07;11.87;;;2.00;99.90;;;;;;5059286;28;20222;-54
2022/01/10 03:11:42;;;;;;;24.33;12.43;;;2.00;99.90;;;;;;5058747;28;20227;-53
2022/01/10 03:14:11;;;;;;;27.17;12.30;;;2.00;99.90;;;;;;5058267;28;20204;-53
2022/01/10 03:16:39;;;;;;;21.80;11.97;;;2.00;99.90;;;;;;5054600;28;20203;-53
2022/01/10 03:19:06;;;;;;;19.13;12.13;;;2.30;99.90;;;;;;5053295;28;20326;-52
2022/01/10 03:21:35;;;;;;;23.40;12.67;;;2.40;99.90;;;;;;5057522;28;20219;-51
2022/01/10 03:24:03;;;;;;;20.80;12.10;;;2.30;99.90;;;;;;5053150;28;20287;-55
2022/01/10 03:26:31;;;;;;;20.13;12.57;;;2.40;99.90;;;;;;5057280;28;20248;-54
2022/01/10 03:28:58;;;;;;;22.93;12.53;;;2.40;99.90;;;;;;5059008;28;20806;-52
2022/01/10 03:31:25;;;;;;;20.60;12.23;;;2.40;99.90;;;;;;5056988;28;20562;-52
2022/01/10 03:33:52;;;;;;;20.33;12.40;;;2.30;99.90;;;;;;5058329;28;20200;-54
2022/01/10 03:36:19;;;;;;;18.90;12.37;;;2.20;99.90;;;;;;5055775;28;20319;-52
2022/01/10 03:38:46;;;;;;;23.73;13.63;;;2.20;99.90;;;;;;5058563;28;20227;-52
2022/01/10 03:41:12;;;;;;;20.77;13.20;;;2.30;99.90;;;;;;5059920;28;20550;-52
2022/01/10 03:43:41;;;;;;;22.37;13.07;;;2.30;99.90;;;;;;5058118;28;20273;-53
2022/01/10 03:46:07;;;;;;;24.30;12.90;;;2.40;99.90;;;;;;5057597;28;20282;-52
2022/01/10 03:48:34;;;;;;;21.47;12.10;;;2.60;99.90;;;;;;5055792;28;20223;-52
2022/01/10 03:51:01;;;;;;;22.77;12.37;;;2.80;99.90;;;;;;5058160;28;20199;-57
2022/01/10 03:53:29;;;;;;;27.07;13.00;;;2.80;99.90;;;;;;5060044;28;20208;-53
2022/01/10 03:55:55;;;;;;;23.50;12.43;;;2.80;99.90;;;;;;5058402;28;20297;-54
2022/01/10 03:58:22;;;;;;;17.40;12.43;;;2.60;99.90;;;;;;5040203;28;20590;-53
2022/01/10 04:00:50;;;;;;;22.47;12.80;;;2.50;99.90;;;;;;5059853;28;20680;-53
2022/01/10 04:03:17;;;;;;;20.47;12.03;;;2.50;99.90;;;;;;5058654;28;20750;-53
2022/01/10 04:05:44;;;;;;;23.27;12.13;;;2.50;99.90;;;;;;5058308;28;20203;-52
2022/01/10 04:08:12;;;;;;;21.47;11.47;;;2.40;99.90;;;;;;5058262;28;20227;-52
2022/01/10 04:10:39;;;;;;;17.80;12.17;;;2.40;99.90;;;;;;5059243;28;20231;-55
2022/01/10 04:13:07;;;;;;;23.37;13.03;;;2.40;99.90;;;;;;5056669;28;20196;-52
2022/01/10 04:15:33;;;;;;;19.97;12.00;;;2.40;99.90;;;;;;5058492;28;20207;-53
2022/01/10 04:18:02;;;;;;;23.50;12.93;;;2.50;99.90;;;;;;5056740;28;20272;-54
2022/01/10 04:20:29;;;;;;;16.47;11.80;;;2.40;99.90;;;;;;5056157;28;20203;-54
2022/01/10 04:22:56;;;;;;;16.80;11.93;;;2.40;99.90;;;;;;5060148;28;20275;-52
2022/01/10 04:25:23;;;;;;;24.47;12.20;;;2.40;99.90;;;;;;5060835;28;20214;-52
2022/01/10 04:27:50;;;;;;;20.50;11.67;;;2.40;99.90;;;;;;5065244;28;20788;-53
2022/01/10 04:30:17;;;;;;;22.07;11.20;;;2.40;99.90;;;;;;5061908;28;20686;-54
2022/01/10 04:32:44;;;;;;;26.43;13.17;;;2.40;99.90;;;;;;5062573;28;20230;-53
2022/01/10 04:35:11;;;;;;;19.30;12.43;;;2.40;99.90;;;;;;5062434;28;20947;-55
2022/01/10 04:37:39;;;;;;;23.10;12.07;;;2.40;99.90;;;;;;5062107;28;20232;-53
2022/01/10 04:40:08;;;;;;;27.47;12.13;;;2.40;99.90;;;;;;5063134;28;20204;-52
2022/01/10 04:42:35;;;;;;;17.80;11.37;;;2.40;99.90;;;;;;5059920;28;20222;-50
2022/01/10 04:45:03;;;;;;;22.30;13.00;;;2.40;99.90;;;;;;5060022;28;20195;-52
2022/01/10 04:47:30;;;;;;;24.77;12.87;;;2.40;99.90;;;;;;5062535;28;20200;-53
2022/01/10 04:52:29;;;;;;;24.27;11.97;;;2.40;99.90;;;;;;5062312;28;20207;-54
2022/01/10 04:54:57;;;;;;;21.43;12.33;;;2.30;99.90;;;;;;5065012;28;20215;-52
2022/01/10 04:57:24;;;;;;;20.63;11.93;;;2.30;99.90;;;;;;5061624;28;20854;-54
2022/01/10 04:59:51;;;;;;;22.33;11.97;;;2.30;99.90;;;;;;5061148;28;20290;-53
2022/01/10 05:02:18;;;;;;;19.87;12.37;;;2.40;99.90;;;;;;5061948;28;20207;-53
2022/01/10 05:04:45;;;;;;;20.50;12.40;;;2.40;99.90;;;;;;5058806;28;20280;-56
2022/01/10 05:07:12;;;;;;;24.47;12.17;;;2.30;99.90;;;;;;5060979;28;20219;-52
2022/01/10 05:09:39;;;;;;;25.07;11.97;;;2.30;99.90;;;;;;5058969;28;20220;-55
2022/01/10 05:12:07;;;;;;;20.63;11.30;;;2.40;99.90;;;;;;5062233;28;20200;-52
2022/01/10 05:14:34;;;;;;;23.00;11.53;;;2.40;99.90;;;;;;5060672;28;20294;-54
2022/01/10 05:17:01;;;;;;;21.83;11.23;;;2.40;99.90;;;;;;5060365;28;20211;-57
2022/01/10 05:19:28;;;;;;;19.47;11.93;;;2.40;99.90;;;;;;5057210;28;20649;-54
2022/01/10 05:21:56;;;;;;;26.10;11.77;;;2.50;99.90;;;;;;5056854;28;20229;-55
2022/01/10 05:24:23;;;;;;;23.50;11.73;;;2.50;99.90;;;;;;5060529;28;20294;-55
2022/01/10 05:26:50;;;;;;;19.77;11.37;;;2.50;99.90;;;;;;5060220;28;20245;-58
2022/01/10 05:29:17;;;;;;;24.03;12.50;;;2.70;99.90;;;;;;5058881;28;20747;-54
2022/01/10 05:31:44;;;;;;;20.60;12.07;;;2.90;99.90;;;;;;5061368;28;20268;-52
2022/01/10 05:34:11;;;;;;;21.20;10.60;;;2.90;99.90;;;;;;5059772;28;20199;-57
2022/01/10 05:36:38;;;;;;;24.67;11.63;;;2.80;99.90;;;;;;5059880;28;20223;-55
2022/01/10 05:39:07;;;;;;;21.80;11.60;;;2.70;99.90;;;;;;5061112;28;20779;-53
2022/01/10 05:41:35;;;;;;;16.50;10.17;;;2.60;99.90;;;;;;5061424;28;20203;-53
2022/01/10 05:44:03;;;;;;;18.87;11.80;;;2.80;99.90;;;;;;5062816;28;20303;-54
2022/01/10 05:46:31;;;;;;;20.60;11.50;;;2.70;99.90;;;;;;5060657;28;20204;-53
2022/01/10 05:49:02;;;;;;;17.93;11.57;;;2.70;99.90;;;;;;5058232;28;20268;-55
2022/01/10 05:51:34;;;;;;;15.63;9.93;;;2.60;99.90;;;;;;5059231;28;20199;-55
2022/01/10 05:54:02;;;;;;;21.23;11.23;;;2.50;99.90;;;;;;5059819;28;20299;-54
2022/01/10 05:56:29;;;;;;;18.00;11.10;;;2.40;99.90;;;;;;5061672;28;20231;-55
2022/01/10 05:58:56;;;;;;;20.57;11.63;;;2.50;99.90;;;;;;5059568;28;20204;-53
2022/01/10 06:01:23;;;;;;;21.33;11.47;;;2.70;99.90;;;;;;5060835;28;20329;-53
2022/01/10 06:03:50;;;;;;;23.43;12.43;;;2.90;99.90;;;;;;5057884;28;20227;-54
2022/01/10 06:06:17;;;;;;;19.00;11.00;;;2.90;99.90;;;;;;5059847;28;20208;-53
2022/01/10 06:08:44;;;;;;;22.70;11.47;;;2.70;99.90;;;;;;5060413;28;20216;-53
2022/01/10 06:11:11;;;;;;;19.40;10.83;;;2.60;99.90;;;;;;5059251;28;20207;-52
2022/01/10 06:13:38;;;;;;;20.37;10.30;;;2.60;99.90;;;;;;5060225;28;20203;-53
2022/01/10 06:16:05;;;;;;;21.40;11.17;;;2.70;99.90;;;;;;5058975;28;20613;-56
2022/01/10 06:18:32;;;;;;;22.87;11.30;;;2.60;99.90;;;;;;5059499;28;20204;-51
2022/01/10 06:20:59;;;;;;;22.33;11.67;;;2.60;99.90;;;;;;5057024;28;20625;-52
2022/01/10 06:23:26;;;;;;;20.87;11.07;;;2.50;99.90;;;;;;5057123;28;20207;-53
2022/01/10 06:25:53;;;;;;;26.53;10.90;;;2.60;99.90;;;;;;5057650;28;20291;-54
2022/01/10 06:28:20;;;;;;;23.90;11.40;;;2.60;99.90;;;;;;5059671;28;20196;-52
2022/01/10 06:30:47;;;;;;;16.97;11.53;;;2.70;99.90;;;;;;5059162;28;20200;-52
2022/01/10 06:33:14;;;;;;;19.73;10.97;;;2.90;99.90;;;;;;5059495;28;20214;-54
2022/01/10 06:35:41;;;;;;;23.33;11.27;;;2.80;99.90;;;;;;5057429;28;20298;-56
2022/01/10 06:38:07;;;;;;;20.23;12.90;;;2.80;99.90;;;;;;5060154;28;20266;-52
2022/01/10 06:40:34;;;;;;;18.30;10.33;;;2.80;99.90;;;;;;5058155;28;20241;-52
2022/01/10 06:43:02;;;;;;;24.33;11.10;;;2.80;99.90;;;;;;5059104;28;20249;-55
2022/01/10 06:45:29;;;;;;;20.63;12.30;;;2.80;99.90;;;;;;5056522;28;20202;-53
2022/01/10 06:47:55;;;;;;;20.27;11.53;;;2.80;99.90;;;;;;5058264;28;20683;-53
2022/01/10 06:50:22;;;;;;;23.87;12.17;;;2.70;99.90;;;;;;5057904;28;20250;-53
2022/01/10 06:52:51;;;;;;;20.83;11.23;;;2.80;99.90;;;;;;5058810;28;20290;-54
2022/01/10 06:55:17;;;;;;;25.83;12.33;;;2.90;99.90;;;;;;5057343;28;21539;-53
2022/01/10 06:57:44;;;;;;;19.80;10.97;;;2.90;99.90;;;;;;5059387;28;20289;-53
2022/01/10 07:00:11;;;;;;;23.57;12.73;;;2.90;99.90;;;;;;5051532;28;20214;-54
2022/01/10 07:02:38;;;;;;;20.90;11.40;;;2.80;99.90;;;;;;5049188;28;20211;-55
2022/01/10 07:05:05;;;;;;;17.97;10.70;;;2.80;99.90;;;;;;5057665;28;20207;-54
2022/01/10 07:07:32;;;;;;;21.60;11.57;;;2.70;99.90;;;;;;5057044;28;20250;-54
2022/01/10 07:09:59;;;;;;;24.97;13.13;;;2.70;99.90;;;;;;5058035;28;20232;-54
2022/01/10 07:12:26;;;;;;;28.70;11.47;;;2.90;99.90;;;;;;5059665;28;20235;-54
2022/01/10 07:14:53;;;;;;;24.63;11.67;;;3.10;99.90;;;;;;5057020;28;20210;-53
2022/01/10 07:17:19;;;;;;;21.47;11.90;;;3.20;99.90;;;;;;5056010;28;20264;-53
2022/01/10 07:19:46;;;;;;;19.13;11.50;;;3.30;99.90;;;;;;5048573;28;20253;-54
2022/01/10 07:22:13;;;;;;;18.03;11.10;;;3.10;99.90;;;;;;5058166;28;20205;-53
2022/01/10 07:24:40;;;;;;;18.77;11.43;;;3.00;99.90;;;;;;5059459;28;20655;-53
2022/01/10 07:27:07;;;;;;;25.60;12.20;;;3.20;99.90;;;;;;5055071;28;20288;-56
2022/01/10 07:29:34;;;;;;;24.87;12.27;;;3.20;99.90;;;;;;5057514;28;20303;-53
2022/01/10 07:32:01;;;;;;;21.63;11.10;;;3.20;99.90;;;;;;5054713;28;20196;-53
2022/01/10 07:34:28;;;;;;;21.70;11.17;;;3.40;99.90;;;;;;5056306;28;20207;-53
2022/01/10 07:36:55;;;;;;;17.83;11.93;;;3.30;99.90;;;;;;5054567;28;20284;-54
2022/01/10 07:39:22;;;;;;;22.50;12.10;;;3.10;99.90;;;;;;5056569;28;20276;-59
2022/01/10 07:41:48;;;;;;;19.23;11.30;;;3.00;99.90;;;;;;5059019;28;20199;-54
2022/01/10 07:44:15;;;;;;;19.87;12.37;;;2.90;99.90;;;;;;5058975;28;20211;-57
2022/01/10 07:46:42;;;;;;;24.27;12.03;;;2.90;99.90;;;;;;5058379;28;20253;-52
2022/01/10 07:49:09;;;;;;;21.43;11.87;;;2.90;99.90;;;;;;5059185;28;20192;-53
2022/01/10 07:51:36;;;;;;;23.10;12.97;;;3.00;99.90;;;;;;5054440;28;20204;-56
2022/01/10 07:54:02;;;;;;;19.30;11.77;;;2.80;99.90;;;;;;5056103;28;20204;-55
2022/01/10 07:56:29;;;;;;;20.10;11.47;;;2.80;99.90;;;;;;5057590;28;20221;-55
2022/01/10 07:58:56;;;;;;;21.87;11.70;;;2.70;99.90;;;;;;5055814;28;20262;-54
2022/01/10 08:01:23;;;;;;;18.63;11.60;;;2.80;99.90;;;;;;5056500;28;20238;-55
2022/01/10 08:03:51;;;;;;;23.20;12.97;;;2.80;99.90;;;;;;5055646;28;20250;-55
2022/01/10 08:06:22;;;;;;;18.73;10.73;;;2.80;99.90;;;;;;5055604;28;20231;-53
2022/01/10 08:08:49;;;;;;;24.80;12.73;;;3.00;99.90;;;;;;5058950;28;20277;-54
2022/01/10 08:11:16;;;;;;;22.03;13.00;;;3.20;99.90;;;;;;5056083;28;20672;-54
2022/01/10 08:13:43;;;;;;;23.30;12.53;;;3.30;99.90;;;;;;5068910;28;20208;-54
2022/01/10 08:16:10;;;;;;;26.87;13.30;;;3.30;99.90;;;;;;5054359;28;20207;-53
2022/01/10 08:18:37;;;;;;;21.27;12.33;;;3.10;99.90;;;;;;5058012;28;20203;-57
2022/01/10 08:21:06;;;;;;;22.10;11.90;;;3.10;99.90;;;;;;5053522;28;20235;-54
2022/01/10 08:23:33;;;;;;;18.13;12.70;;;3.20;99.90;;;;;;5052878;28;20768;-52
2022/01/10 08:26:00;;;;;;;20.43;11.77;;;3.40;99.90;;;;;;5055002;28;20194;-53
2022/01/10 08:28:27;;;;;;;23.03;12.63;;;3.30;99.90;;;;;;5058920;28;20294;-53
2022/01/10 08:30:54;;;;;;;23.27;13.03;;;3.20;99.90;;;;;;5053954;28;20199;-54
2022/01/10 08:33:21;;;;;;;24.57;13.57;;;3.10;99.90;;;;;;5055498;28;20207;-55
2022/01/10 08:35:48;;;;;;;19.37;12.97;;;3.00;99.90;;;;;;5058193;28;20338;-54
2022/01/10 08:38:15;;;;;;;22.03;12.87;;;3.10;99.90;;;;;;5056894;28;20240;-54
2022/01/10 08:40:42;;;;;;;24.87;13.50;;;3.10;99.90;;;;;;5056522;28;20203;-55
2022/01/10 08:43:10;;;;;;;25.60;12.50;;;3.30;99.90;;;;;;5059739;28;20709;-54
2022/01/10 08:45:38;;;;;;;25.63;12.27;;;3.30;99.90;;;;;;5058267;28;20208;-55
2022/01/10 08:48:06;;;;;;;20.30;12.17;;;3.30;99.90;;;;;;5058830;28;20282;-53
2022/01/10 08:50:34;;;;;;;24.10;12.20;;;3.10;99.90;;;;;;5058954;28;20300;-55
2022/01/10 08:53:07;;;;;;;24.53;12.87;;;3.10;99.90;;;;;;5057516;28;20199;-52
2022/01/10 08:55:34;;;;;;;23.50;13.30;;;3.30;99.90;;;;;;5058272;28;20196;-52
2022/01/10 08:58:01;;;;;;;19.90;12.67;;;3.30;99.90;;;;;;5041699;28;20295;-53
2022/01/10 09:00:28;;;;;;;20.43;12.67;;;3.60;99.90;;;;;;5055940;28;20227;-52
2022/01/10 09:02:56;;;;;;;20.17;12.53;;;3.60;99.90;;;;;;5056809;28;20277;-55
2022/01/10 09:05:23;;;;;;;18.17;11.67;;;3.60;99.90;;;;;;5054634;28;20195;-54
2022/01/10 09:07:51;;;;;;;21.67;13.23;;;3.50;99.90;;;;;;5055587;28;20760;-52
2022/01/10 09:10:19;;;;;;;24.23;12.70;;;3.40;99.90;;;;;;5059727;28;20231;-53
2022/01/10 09:12:46;;;;;;;18.87;12.57;;;3.40;99.90;;;;;;5059675;28;20592;-54
2022/01/10 09:15:14;;;;;;;27.13;14.37;;;3.40;99.90;;;;;;5057743;28;20204;-54
2022/01/10 09:17:41;;;;;;;17.60;12.33;;;3.40;99.90;;;;;;5056387;28;20188;-57
2022/01/10 09:20:09;;;;;;;26.37;12.63;;;3.50;99.90;;;;;;5060309;28;20223;-55
2022/01/10 09:22:36;;;;;;;19.90;13.63;;;3.50;99.90;;;;;;5060208;28;21214;-56
2022/01/10 09:25:05;;;;;;;24.87;13.63;;;3.60;99.90;;;;;;5059929;28;20273;-54
2022/01/10 09:27:32;;;;;;;24.20;12.93;;;3.70;99.90;;;;;;5059869;28;20296;-53
2022/01/10 09:29:59;;;;;;;20.47;12.87;;;3.70;99.90;;;;;;5061523;28;20256;-50
2022/01/10 09:32:26;;;;;;;22.83;13.03;;;3.50;99.90;;;;;;5059676;28;20203;-53
2022/01/10 09:34:52;;;;;;;25.57;14.07;;;3.50;99.90;;;;;;5058988;28;20204;-54
2022/01/10 09:37:19;;;;;;;22.37;13.30;;;3.50;99.90;;;;;;5061163;28;20240;-54
2022/01/10 09:39:46;;;;;;;20.27;12.87;;;3.80;99.90;;;;;;5060667;28;20204;-57
2022/01/10 09:42:15;;;;;;;24.67;12.80;;;3.70;99.90;;;;;;5058952;28;20200;-55
2022/01/10 09:44:42;;;;;;;20.07;13.33;;;3.70;99.90;;;;;;5061664;28;20229;-53
2022/01/10 09:47:08;;;;;;;19.57;13.57;;;3.70;99.90;;;;;;5061898;28;20235;-52
2022/01/10 09:49:35;;;;;;;21.13;13.23;;;3.70;99.90;;;;;;5059562;28;20670;-55
2022/01/10 09:52:04;;;;;;;21.57;12.27;;;3.90;99.90;;;;;;5059359;28;20267;-53
2022/01/10 09:54:31;;;;;;;20.27;12.87;;;3.90;99.90;;;;;;5059936;28;20204;-55
2022/01/10 09:56:58;;;;;;;18.97;12.60;;;4.10;99.90;;;;;;5059446;28;20655;-56
2022/01/10 09:59:25;;;;;;;21.23;12.87;;;4.20;99.90;;;;;;5060633;28;20945;-52
2022/01/10 10:01:52;;;;;;;20.10;12.47;;;4.00;99.90;;;;;;5057874;28;20597;-62
2022/01/10 10:04:19;;;;;;;19.57;12.27;;;3.90;99.90;;;;;;5060338;28;20222;-55
2022/01/10 10:06:47;;;;;;;22.73;12.43;;;4.00;99.90;;;;;;5059709;28;20224;-55
2022/01/10 10:09:16;;;;;;;17.57;13.00;;;4.10;99.90;;;;;;5059313;28;20272;-55
2022/01/10 10:11:51;;;;;;;21.03;12.83;;;4.20;99.90;;;;;;5059044;28;20227;-49
2022/01/10 10:14:22;;;;;;;28.57;12.90;;;4.30;99.90;;;;;;5058393;28;20315;-54
2022/01/10 10:16:54;;;;;;;24.30;13.00;;;4.50;99.90;;;;;;5059388;28;20199;-53
2022/01/10 10:19:23;;;;;;;21.80;13.00;;;4.30;99.90;;;;;;5056539;28;20595;-53
2022/01/10 10:21:51;;;;;;;22.40;12.30;;;4.50;99.90;;;;;;5056828;28;22085;-53
2022/01/10 10:24:19;;;;;;;18.87;12.13;;;4.40;99.90;;;;;;5057343;28;20216;-54
2022/01/10 10:26:46;;;;;;;22.07;11.83;;;4.20;99.90;;;;;;5059428;28;20591;-53
2022/01/10 10:29:17;;;;;;;20.87;12.13;;;4.20;99.90;;;;;;5055757;28;20273;-55
2022/01/10 10:31:50;;;;;;;21.47;11.93;;;4.20;99.90;;;;;;5059243;28;20246;-52
2022/01/10 10:34:23;;;;;;;24.80;12.03;;;4.10;99.90;;;;;;5058369;28;20210;-53
2022/01/10 10:37:27;;;;;;;22.53;12.47;;;3.90;99.90;;;;;;5061796;28;20707;-53
2022/01/10 10:39:56;;;;;;;22.37;13.03;;;4.00;99.90;;;;;;4986273;28;20253;-53
2022/01/10 10:42:28;;;;;;;21.37;12.23;;;4.20;99.90;;;;;;4995904;28;20227;-54
2022/01/10 10:44:56;;;;;;;16.63;11.37;;;4.30;99.90;;;;;;4995611;28;20344;-52
2022/01/10 10:47:26;;;;;;;22.23;12.67;;;4.30;99.90;;;;;;4997700;28;20288;-51
2022/01/10 10:49:58;;;;;;;18.40;11.63;;;4.60;99.90;;;;;;4997517;28;20226;-53
2022/01/10 10:52:31;;;;;;;21.10;12.27;;;4.60;99.90;;;;;;4995698;28;20288;-52
2022/01/10 10:55:05;;;;;;;20.87;12.73;;;4.30;99.90;;;;;;4997745;28;20234;-54
2022/01/10 10:57:32;;;;;;;20.83;12.87;;;4.30;99.90;;;;;;4998593;28;20263;-53
2022/01/10 11:00:00;;;;;;;21.57;12.33;;;4.40;99.90;;;;;;4988312;28;20197;-53
2022/01/10 11:02:27;;;;;;;20.17;12.10;;;4.60;99.90;;;;;;4996523;28;20206;-54
2022/01/10 11:04:54;;;;;;;19.10;11.73;;;4.50;99.90;;;;;;4993580;28;20217;-52
2022/01/10 11:07:24;;;;;;;19.50;11.10;;;4.70;99.90;;;;;;4995361;28;20219;-55
2022/01/10 11:10:11;;;;;;;20.33;11.43;;;4.80;99.90;;;;;;4997936;28;20343;-53
2022/01/10 11:12:42;;;;;;;19.67;11.83;;;4.90;99.90;;;;;;4998800;28;20609;-52
2022/01/10 11:15:10;;;;;;;17.83;10.87;;;4.90;99.90;;;;;;5057143;28;20641;-51
2022/01/10 11:17:41;;;;;;;18.70;11.63;;;5.20;99.90;;;;;;5057887;28;20205;-52
2022/01/10 11:20:20;;;;;;;17.67;11.50;;;5.20;99.90;;;;;;5056259;28;20681;-53
2022/01/10 11:22:56;;;;;;;21.00;11.90;;;5.20;99.90;;;;;;5059371;28;20215;-54
2022/01/10 11:25:27;;;;;;;18.40;11.47;;;5.60;99.90;;;;;;5058887;28;20220;-53
2022/01/10 11:28:06;;;;;;;19.13;11.47;;;5.30;99.90;;;;;;5056815;28;20196;-56
2022/01/10 11:30:39;;;;;;;19.80;11.53;;;5.30;99.90;;;;;;5058491;28;20252;-53
2022/01/10 11:33:22;;;;;;;19.83;11.50;;;5.30;99.90;;;;;;5056762;28;20232;-53
2022/01/10 11:35:54;;;;;;;22.97;13.20;;;5.30;99.90;;;;;;5056318;28;20208;-53
2022/01/10 11:38:31;;;;;;;22.03;12.10;;;5.60;99.90;;;;;;5057793;28;20721;-54
2022/01/10 11:41:01;;;;;;;20.67;12.00;;;5.90;99.90;;;;;;5056577;28;20202;-53
2022/01/10 11:44:07;;;;;;;19.70;11.20;;;6.30;99.90;;;;;;5055903;28;20288;-53
2022/01/10 11:46:47;;;;;;;17.33;11.17;;;6.40;99.90;;;;;;5058804;28;20684;-52
2022/01/10 11:49:15;;;;;;;20.33;11.57;;;6.30;99.90;;;;;;5055483;28;20280;-53
2022/01/10 11:51:45;;;;;;;19.00;10.87;;;6.50;99.90;;;;;;5056318;28;20202;-53
2022/01/10 11:54:33;;;;;;;20.60;11.30;;;6.40;99.90;;;;;;5058902;28;20206;-51
2022/01/10 11:57:05;;;;;;;22.53;11.77;;;6.50;99.90;;;;;;5044578;28;20211;-52
2022/01/10 11:59:37;;;;;;;21.27;10.97;;;6.90;99.90;;;;;;5058983;28;20323;-53
2022/01/10 12:02:12;;;;;;;20.37;11.87;;;7.40;99.90;;;;;;5071190;28;20221;-54
2022/01/10 12:04:44;;;;;;;20.97;11.37;;;8.00;99.90;;;;;;5053750;28;20207;-52
2022/01/10 12:07:14;;;;;;;18.43;10.77;;;8.70;99.90;;;;;;5057428;28;20323;-54
2022/01/10 12:09:41;;;;;;;19.93;10.77;;;8.90;99.90;;;;;;5055545;28;20247;-54
2022/01/10 12:12:10;;;;;;;18.50;11.07;;;8.70;99.90;;;;;;5057898;28;20197;-54
2022/01/10 12:14:38;;;;;;;19.57;11.90;;;8.40;99.90;;;;;;5057523;28;20946;-53
2022/01/10 12:17:07;;;;;;;21.07;11.63;;;8.10;99.90;;;;;;5057579;28;20210;-54
2022/01/10 12:19:35;;;;;;;21.20;10.83;;;8.00;99.90;;;;;;5056493;28;20213;-54
2022/01/10 12:22:06;;;;;;;19.43;11.20;;;7.50;99.90;;;;;;5052022;28;20298;-56
2022/01/10 12:24:38;;;;;;;24.63;11.83;;;7.20;99.90;;;;;;5059234;28;20356;-53
2022/01/10 12:27:07;;;;;;;18.43;10.50;;;7.00;99.90;;;;;;5055984;28;20314;-52
2022/01/10 12:29:34;;;;;;;20.37;10.93;;;6.90;99.90;;;;;;5055617;28;20208;-54
2022/01/10 12:32:04;;;;;;;19.53;9.87;;;6.50;99.90;;;;;;5057896;28;20196;-54
2022/01/10 12:34:32;;;;;;;19.93;10.13;;;6.40;99.90;;;;;;5054786;28;20230;-53
2022/01/10 12:36:59;;;;;;;18.93;10.30;;;6.20;99.90;;;;;;5056542;28;20242;-54
2022/01/10 12:39:28;;;;;;;23.47;11.57;;;6.20;99.90;;;;;;5055586;28;20205;-53
2022/01/10 12:41:57;;;;;;;22.23;11.27;;;6.20;99.90;;;;;;5056959;28;20235;-51
2022/01/10 12:44:25;;;;;;;22.30;11.73;;;6.20;99.90;;;;;;5059739;28;20221;-53
2022/01/10 12:46:52;;;;;;;22.03;11.97;;;6.20;99.90;;;;;;5059163;28;20211;-52
2022/01/10 12:49:19;;;;;;;20.87;11.33;;;6.30;99.90;;;;;;5060591;28;20229;-52
2022/01/10 12:51:52;;;;;;;25.73;13.03;;;6.40;99.90;;;;;;5058470;28;20268;-51
2022/01/10 12:54:26;;;;;;;25.57;12.20;;;6.50;99.90;;;;;;5061148;28;20761;-53
2022/01/10 12:56:54;;;;;;;25.73;11.87;;;6.60;99.90;;;;;;5061208;28;20222;-53
2022/01/10 12:59:24;;;;;;;29.80;12.13;;;6.70;99.90;;;;;;5075600;28;20554;-54
2022/01/10 13:01:52;;;;;;;24.47;11.40;;;6.80;99.90;;;;;;5060755;28;20233;-54
2022/01/10 13:04:25;;;;;;;24.13;12.30;;;7.20;99.90;;;;;;5060014;28;20226;-58
2022/01/10 13:06:53;;;;;;;23.30;11.63;;;7.50;99.90;;;;;;5059798;28;20276;-52
2022/01/10 13:09:39;;;;;;;23.00;11.90;;;7.70;99.90;;;;;;5060223;28;20222;-54
2022/01/10 13:12:15;;;;;;;22.57;12.27;;;7.90;99.90;;;;;;5059289;28;20242;-54
2022/01/10 13:14:42;;;;;;;31.97;11.97;;;8.00;99.90;;;;;;5058924;28;20676;-55